createdAt,value
2023-01-19T00:01:41.510Z,0.58
2023-01-19T00:04:08.748Z,0.88
2023-01-19T00:06:36.013Z,0.81
2023-01-19T00:09:08.693Z,0.67
2023-01-19T00:11:36.020Z,1.00
2023-01-19T00:14:03.414Z,0.77
2023-01-19T00:16:32.692Z,0.50
2023-01-19T00:18:59.898Z,0.49
2023-01-19T00:21:26.584Z,0.90
2023-01-19T00:23:53.399Z,0.87
2023-01-19T00:26:22.367Z,1.07
2023-01-19T00:28:50.488Z,1.13
2023-01-19T00:31:17.366Z,0.61
2023-01-19T00:33:44.184Z,1.08
2023-01-19T00:36:10.988Z,1.11
2023-01-19T00:38:39.077Z,1.16
2023-01-19T00:41:06.189Z,1.24
2023-01-19T00:43:33.025Z,1.23
2023-01-19T00:45:59.842Z,1.30
2023-01-19T00:48:26.583Z,1.28
2023-01-19T00:50:53.331Z,1.24
2023-01-19T00:53:20.344Z,1.29
2023-01-19T00:55:47.321Z,1.38
2023-01-19T00:58:14.123Z,1.26
2023-01-19T01:00:41.081Z,1.20
2023-01-19T01:03:07.898Z,1.35
2023-01-19T01:05:34.650Z,1.34
2023-01-19T01:08:01.340Z,1.40
2023-01-19T01:10:29.639Z,1.30
2023-01-19T01:13:20.397Z,1.31
2023-01-19T01:15:44.023Z,1.23
2023-01-19T01:18:10.770Z,1.25
2023-01-19T01:20:37.701Z,1.29
2023-01-19T01:23:04.785Z,1.21
2023-01-19T01:25:34.742Z,1.25
2023-01-19T01:28:03.099Z,1.15
2023-01-19T01:30:29.852Z,1.06
2023-01-19T01:32:58.356Z,0.81
2023-01-19T01:35:42.925Z,0.75
2023-01-19T01:38:14.898Z,0.88
2023-01-19T01:40:42.841Z,0.57
2023-01-19T01:43:19.747Z,1.04
2023-01-19T01:45:50.123Z,0.93
2023-01-19T01:48:24.706Z,1.17
2023-01-19T01:51:15.788Z,0.96
2023-01-19T01:53:47.423Z,0.94
2023-01-19T01:56:20.177Z,0.75
2023-01-19T01:58:47.088Z,0.83
2023-01-19T02:01:32.723Z,1.10
2023-01-19T02:03:59.974Z,1.00
2023-01-19T02:06:26.761Z,1.05
2023-01-19T02:09:21.883Z,1.05
2023-01-19T02:12:08.165Z,0.97
2023-01-19T02:14:39.157Z,0.96
2023-01-19T02:17:07.306Z,0.99
2023-01-19T02:19:41.094Z,0.93
2023-01-19T02:22:18.447Z,0.78
2023-01-19T02:24:45.369Z,0.88
2023-01-19T02:27:12.788Z,0.79
2023-01-19T02:29:39.915Z,0.62
2023-01-19T02:32:07.521Z,0.53
2023-01-19T02:34:35.199Z,0.45
2023-01-19T02:37:07.511Z,0.49
2023-01-19T02:39:42.276Z,0.43
2023-01-19T02:42:23.153Z,0.60
2023-01-19T02:44:53.866Z,0.49
2023-01-19T02:47:20.656Z,0.62
2023-01-19T02:49:57.495Z,0.59
2023-01-19T02:52:24.863Z,0.67
2023-01-19T02:55:18.353Z,0.70
2023-01-19T02:57:48.079Z,0.64
2023-01-19T03:00:33.984Z,0.68
2023-01-19T03:03:22.101Z,0.72
2023-01-19T03:06:03.261Z,0.58
2023-01-19T03:08:52.790Z,0.66
2023-01-19T03:11:19.719Z,0.52
2023-01-19T03:13:52.637Z,0.67
2023-01-19T03:16:29.658Z,0.66
2023-01-19T03:19:04.578Z,0.63
2023-01-19T03:21:36.003Z,0.68
2023-01-19T03:24:06.485Z,0.63
2023-01-19T03:26:41.146Z,0.67
2023-01-19T03:29:10.656Z,0.61
2023-01-19T03:31:38.905Z,0.63
2023-01-19T03:34:10.442Z,0.67
2023-01-19T03:36:53.252Z,0.68
2023-01-19T03:39:24.971Z,0.77
2023-01-19T03:42:00.171Z,0.67
2023-01-19T03:44:30.667Z,0.76
2023-01-19T03:47:02.676Z,0.45
2023-01-19T03:49:31.838Z,0.80
2023-01-19T03:51:59.554Z,0.59
2023-01-19T03:54:26.696Z,0.80
2023-01-19T03:56:54.297Z,0.80
2023-01-19T03:59:21.965Z,0.75
2023-01-19T04:01:49.138Z,0.81
2023-01-19T04:04:16.527Z,0.68
2023-01-19T04:06:44.539Z,0.39
2023-01-19T04:09:11.383Z,0.69
2023-01-19T04:11:38.628Z,0.86
2023-01-19T04:14:05.340Z,0.87
2023-01-19T04:16:32.064Z,0.85
2023-01-19T04:18:59.005Z,0.87
2023-01-19T04:21:25.762Z,0.79
2023-01-19T04:23:53.365Z,0.83
2023-01-19T04:26:20.375Z,0.87
2023-01-19T04:28:48.587Z,0.84
2023-01-19T04:31:15.445Z,0.61
2023-01-19T04:33:42.720Z,0.54
2023-01-19T04:36:09.890Z,0.30
2023-01-19T04:38:37.050Z,0.28
2023-01-19T04:41:09.724Z,0.23
2023-01-19T04:43:36.497Z,0.26
2023-01-19T04:46:03.404Z,0.65
2023-01-19T04:48:30.090Z,0.61
2023-01-19T04:50:56.781Z,0.56
2023-01-19T04:53:23.488Z,0.59
2023-01-19T04:55:54.987Z,0.63
2023-01-19T04:58:21.797Z,0.56
2023-01-19T05:00:48.790Z,0.59
2023-01-19T05:03:15.591Z,0.58
2023-01-19T05:05:42.292Z,0.41
2023-01-19T05:08:09.120Z,0.46
2023-01-19T05:10:36.927Z,0.35
2023-01-19T05:13:04.412Z,0.48
2023-01-19T05:15:31.480Z,0.47
2023-01-19T05:17:58.636Z,0.48
2023-01-19T05:20:25.516Z,0.49
2023-01-19T05:22:53.738Z,0.28
2023-01-19T05:25:20.413Z,0.41
2023-01-19T05:27:47.211Z,0.35
2023-01-19T05:30:14.789Z,-0.01
2023-01-19T05:32:41.597Z,0.15
2023-01-19T05:35:08.756Z,0.29
2023-01-19T05:37:35.585Z,0.33
2023-01-19T05:40:02.450Z,0.09
2023-01-19T05:42:30.788Z,-0.03
2023-01-19T05:44:59.718Z,-0.19
2023-01-19T05:47:26.752Z,0.17
2023-01-19T05:49:53.563Z,0.18
2023-01-19T05:52:20.296Z,0.05
2023-01-19T05:54:48.402Z,0.05
2023-01-19T05:57:15.283Z,0.00
2023-01-19T05:59:42.024Z,-0.04
2023-01-19T06:02:09.047Z,-0.05
2023-01-19T06:04:35.750Z,0.03
2023-01-19T06:07:02.640Z,-0.04
2023-01-19T06:09:29.540Z,0.10
2023-01-19T06:11:57.845Z,0.18
2023-01-19T06:14:25.253Z,0.14
2023-01-19T06:16:52.299Z,0.15
2023-01-19T06:19:19.073Z,0.27
2023-01-19T06:21:49.923Z,0.24
2023-01-19T06:24:16.681Z,0.18
2023-01-19T06:26:47.833Z,0.10
2023-01-19T06:29:15.072Z,0.06
2023-01-19T06:31:42.609Z,0.04
2023-01-19T06:34:10.344Z,0.04
2023-01-19T06:36:37.299Z,-0.02
2023-01-19T06:39:06.151Z,0.05
2023-01-19T06:41:33.816Z,-0.15
2023-01-19T06:44:01.391Z,0.04
2023-01-19T06:46:28.565Z,0.03
2023-01-19T06:48:55.584Z,-0.10
2023-01-19T06:51:22.930Z,-0.04
2023-01-19T06:53:50.056Z,0.02
2023-01-19T06:56:16.809Z,-0.12
2023-01-19T06:58:43.843Z,-0.08
2023-01-19T07:01:10.916Z,0.04
2023-01-19T07:03:38.687Z,0.01
2023-01-19T07:06:09.251Z,-0.19
2023-01-19T07:08:37.545Z,0.03
2023-01-19T07:11:22.167Z,0.03
2023-01-19T07:13:55.918Z,0.06
2023-01-19T07:16:25.356Z,0.01
2023-01-19T07:18:52.234Z,-0.06
2023-01-19T07:21:19.416Z,0.01
2023-01-19T07:23:49.072Z,-0.07
2023-01-19T07:26:18.704Z,-0.23
2023-01-19T07:28:46.808Z,-0.39
2023-01-19T07:31:15.795Z,-0.11
2023-01-19T07:33:44.385Z,-0.06
2023-01-19T07:36:11.740Z,0.02
2023-01-19T07:38:38.562Z,0.06
2023-01-19T07:41:07.652Z,0.11
2023-01-19T07:43:34.577Z,0.18
2023-01-19T07:46:03.477Z,0.34
2023-01-19T07:48:30.253Z,0.29
2023-01-19T07:51:01.846Z,0.42
2023-01-19T07:53:28.740Z,0.50
2023-01-19T07:55:56.753Z,0.50
2023-01-19T07:58:24.880Z,0.52
2023-01-19T08:00:51.705Z,0.61
2023-01-19T08:03:18.782Z,0.74
2023-01-19T08:05:50.830Z,0.87
2023-01-19T08:08:18.363Z,0.83
2023-01-19T08:10:45.264Z,0.86
2023-01-19T08:13:11.940Z,0.91
2023-01-19T08:15:38.584Z,1.03
2023-01-19T08:18:05.876Z,1.02
2023-01-19T08:20:32.868Z,1.05
2023-01-19T08:23:02.994Z,1.08
2023-01-19T08:25:38.779Z,1.16
2023-01-19T08:28:07.345Z,1.22
2023-01-19T08:30:34.834Z,1.17
2023-01-19T08:33:05.142Z,1.14
2023-01-19T08:35:37.149Z,1.17
2023-01-19T08:38:05.395Z,1.26
2023-01-19T08:40:34.872Z,1.22
2023-01-19T08:43:08.000Z,1.21
2023-01-19T08:45:36.493Z,1.22
2023-01-19T08:48:06.564Z,1.23
2023-01-19T08:50:34.498Z,1.32
2023-01-19T08:53:03.487Z,1.30
2023-01-19T08:55:30.822Z,1.27
2023-01-19T08:58:00.387Z,1.36
2023-01-19T09:00:28.141Z,1.33
2023-01-19T09:02:55.139Z,1.33
2023-01-19T09:05:22.386Z,1.37
2023-01-19T09:07:49.581Z,1.41
2023-01-19T09:10:16.876Z,1.41
2023-01-19T09:12:45.060Z,1.48
2023-01-19T09:15:14.018Z,1.52
2023-01-19T09:17:42.500Z,1.60
2023-01-19T09:20:10.991Z,1.68
2023-01-19T09:22:39.940Z,1.66
2023-01-19T09:25:07.976Z,1.61
2023-01-19T09:27:35.188Z,1.62
2023-01-19T09:30:02.216Z,1.61
2023-01-19T09:32:29.000Z,1.60
2023-01-19T09:34:56.582Z,1.65
2023-01-19T09:37:23.271Z,1.75
2023-01-19T09:39:50.106Z,1.69
2023-01-19T09:42:46.312Z,1.43
2023-01-19T09:45:39.684Z,1.73
2023-01-19T09:48:19.798Z,1.66
2023-01-19T09:50:48.592Z,1.66
2023-01-19T09:53:33.547Z,1.65
2023-01-19T09:56:00.216Z,1.65
2023-01-19T09:58:27.092Z,1.71
2023-01-19T10:01:06.600Z,1.66
2023-01-19T10:03:38.428Z,1.56
2023-01-19T10:06:09.564Z,1.72
2023-01-19T10:08:54.893Z,1.79
2023-01-19T10:11:52.948Z,1.83
2023-01-19T10:14:33.249Z,1.86
2023-01-19T10:17:12.781Z,1.91
2023-01-19T10:19:46.751Z,1.92
2023-01-19T10:22:28.751Z,2.06
2023-01-19T10:25:15.891Z,2.00
2023-01-19T10:27:42.959Z,1.89
2023-01-19T10:30:21.132Z,1.96
2023-01-19T10:32:48.325Z,2.02
2023-01-19T10:35:26.158Z,2.11
2023-01-19T10:37:56.402Z,2.26
2023-01-19T10:40:32.934Z,2.59
2023-01-19T10:42:59.990Z,3.04
2023-01-19T10:45:30.377Z,3.65
2023-01-19T10:48:07.213Z,4.71
2023-01-19T10:50:41.213Z,4.78
2023-01-19T10:53:22.602Z,4.39
2023-01-19T10:56:14.492Z,4.21
2023-01-19T10:58:41.431Z,3.96
2023-01-19T11:01:19.206Z,3.79
2023-01-19T11:03:46.739Z,3.76
2023-01-19T11:06:16.242Z,3.96
2023-01-19T11:08:44.593Z,4.72
2023-01-19T11:11:12.623Z,5.86
2023-01-19T11:13:41.305Z,5.92
2023-01-19T11:16:26.918Z,5.69
2023-01-19T11:18:55.810Z,5.91
2023-01-19T11:21:26.084Z,7.29
2023-01-19T11:23:59.506Z,7.86
2023-01-19T11:26:35.135Z,8.48
2023-01-19T11:29:04.198Z,8.22
2023-01-19T11:31:35.514Z,8.67
2023-01-19T11:34:05.215Z,8.80
2023-01-19T11:36:34.732Z,8.46
2023-01-19T11:39:28.130Z,9.04
2023-01-19T11:41:58.820Z,9.26
2023-01-19T11:44:35.710Z,9.25
2023-01-19T11:47:05.706Z,9.55
2023-01-19T11:49:44.659Z,9.88
2023-01-19T11:52:53.519Z,9.13
2023-01-19T11:55:36.521Z,9.31
2023-01-19T11:58:05.500Z,10.15
2023-01-19T12:00:44.759Z,9.80
2023-01-19T12:03:18.462Z,10.44
2023-01-19T12:05:51.446Z,10.66
2023-01-19T12:08:27.076Z,9.98
2023-01-19T12:10:57.375Z,10.22
2023-01-19T12:13:27.577Z,8.48
2023-01-19T12:16:00.447Z,7.50
2023-01-19T12:18:36.951Z,9.01
2023-01-19T12:21:04.381Z,9.50
2023-01-19T12:23:31.211Z,9.32
2023-01-19T12:26:29.471Z,10.23
2023-01-19T12:29:13.376Z,11.43
2023-01-19T12:31:43.463Z,9.94
2023-01-19T12:34:26.214Z,10.90
2023-01-19T12:36:57.663Z,10.09
2023-01-19T12:39:25.662Z,9.37
2023-01-19T12:42:14.547Z,8.26
2023-01-19T12:44:42.040Z,8.44
2023-01-19T12:47:13.372Z,8.60
2023-01-19T12:49:46.547Z,8.18
2023-01-19T12:52:49.469Z,8.38
2023-01-19T12:55:37.922Z,9.88
2023-01-19T12:58:14.171Z,8.46
2023-01-19T13:00:43.521Z,6.88
2023-01-19T13:03:16.175Z,6.93
2023-01-19T13:05:42.842Z,6.04
2023-01-19T13:08:09.561Z,5.68
2023-01-19T13:11:10.450Z,5.41
2023-01-19T13:14:06.193Z,5.29
2023-01-19T13:16:35.525Z,5.17
2023-01-19T13:19:16.538Z,5.40
2023-01-19T13:21:47.983Z,5.69
2023-01-19T13:24:17.620Z,5.45
2023-01-19T13:26:50.227Z,5.39
2023-01-19T13:29:30.366Z,5.86
2023-01-19T13:32:19.481Z,6.23
2023-01-19T13:34:57.980Z,7.38
2023-01-19T13:37:33.280Z,7.73
2023-01-19T13:40:00.321Z,7.58
2023-01-19T13:42:39.697Z,7.85
2023-01-19T13:45:33.559Z,6.79
2023-01-19T13:48:04.529Z,6.40
2023-01-19T13:50:34.283Z,6.02
2023-01-19T13:53:01.539Z,5.65
2023-01-19T13:55:30.952Z,5.56
2023-01-19T13:57:58.092Z,5.54
2023-01-19T14:00:31.014Z,5.50
2023-01-19T14:03:18.771Z,5.46
2023-01-19T14:05:45.511Z,5.21
2023-01-19T14:08:15.353Z,5.00
2023-01-19T14:10:52.193Z,5.10
2023-01-19T14:13:29.552Z,5.13
2023-01-19T14:15:59.058Z,5.02
2023-01-19T14:18:31.502Z,4.88
2023-01-19T14:21:03.811Z,5.05
2023-01-19T14:23:36.623Z,5.04
2023-01-19T14:26:04.442Z,4.92
2023-01-19T14:28:39.472Z,5.00
2023-01-19T14:31:28.212Z,4.90
2023-01-19T14:33:56.327Z,4.82
2023-01-19T14:36:34.929Z,4.71
2023-01-19T14:39:03.150Z,4.61
2023-01-19T14:41:44.120Z,4.46
2023-01-19T14:44:15.963Z,4.60
2023-01-19T14:46:48.508Z,5.02
2023-01-19T14:49:32.738Z,5.61
2023-01-19T14:52:02.781Z,5.64
2023-01-19T14:54:40.551Z,5.31
2023-01-19T14:57:13.201Z,5.21
2023-01-19T14:59:40.730Z,4.97
2023-01-19T15:02:08.798Z,4.72
2023-01-19T15:04:35.525Z,4.41
2023-01-19T15:07:02.204Z,4.33
2023-01-19T15:09:28.990Z,4.28
2023-01-19T15:11:56.036Z,4.16
2023-01-19T15:14:22.715Z,4.13
2023-01-19T15:16:49.581Z,3.84
2023-01-19T15:19:18.014Z,3.76
2023-01-19T15:21:46.869Z,3.74
2023-01-19T15:24:16.359Z,3.53
2023-01-19T15:26:44.487Z,3.41
2023-01-19T15:29:19.249Z,3.36
2023-01-19T15:31:46.121Z,3.16
2023-01-19T15:34:13.617Z,3.05
2023-01-19T15:37:05.547Z,2.53
2023-01-19T15:39:35.127Z,2.36
2023-01-19T15:42:01.824Z,2.64
2023-01-19T15:44:28.546Z,2.51
2023-01-19T15:46:55.253Z,2.49
2023-01-19T15:49:22.080Z,2.40
2023-01-19T15:51:49.675Z,2.32
2023-01-19T15:54:16.800Z,2.26
2023-01-19T15:56:43.644Z,2.12
2023-01-19T15:59:10.310Z,2.11
2023-01-19T16:01:37.087Z,2.01
2023-01-19T16:04:06.739Z,1.89
2023-01-19T16:06:34.273Z,1.92
2023-01-19T16:09:01.642Z,1.79
2023-01-19T16:11:33.560Z,1.67
2023-01-19T16:14:00.812Z,1.58
2023-01-19T16:16:28.382Z,1.50
2023-01-19T16:18:56.224Z,1.46
2023-01-19T16:21:23.794Z,1.48
2023-01-19T16:23:50.641Z,1.42
2023-01-19T16:26:35.298Z,1.20
2023-01-19T16:29:09.906Z,1.21
2023-01-19T16:31:38.022Z,1.08
2023-01-19T16:34:04.668Z,1.02
2023-01-19T16:36:34.499Z,0.92
2023-01-19T16:39:11.479Z,0.79
2023-01-19T16:41:38.923Z,0.73
2023-01-19T16:44:06.401Z,0.74
2023-01-19T16:46:36.108Z,0.80
2023-01-19T16:49:12.012Z,0.78
2023-01-19T16:51:38.801Z,0.64
2023-01-19T16:54:05.770Z,0.63
2023-01-19T16:56:32.941Z,0.58
2023-01-19T16:58:59.838Z,0.59
2023-01-19T17:01:28.399Z,0.49
2023-01-19T17:03:55.526Z,0.57
2023-01-19T17:06:23.266Z,0.43
2023-01-19T17:08:50.890Z,0.41
2023-01-19T17:11:24.258Z,0.37
2023-01-19T17:14:00.448Z,0.21
2023-01-19T17:16:29.161Z,0.37
2023-01-19T17:19:00.508Z,0.33
2023-01-19T17:21:27.485Z,0.36
2023-01-19T17:23:56.153Z,0.33
2023-01-19T17:26:42.904Z,0.31
2023-01-19T17:29:10.228Z,0.22
2023-01-19T17:31:38.707Z,0.15
2023-01-19T17:34:05.424Z,0.19
2023-01-19T17:36:33.646Z,0.15
2023-01-19T17:39:04.799Z,0.14
2023-01-19T17:41:35.244Z,0.11
2023-01-19T17:44:03.466Z,0.12
2023-01-19T17:46:45.401Z,0.12
2023-01-19T17:49:12.322Z,-0.14
2023-01-19T17:51:39.036Z,0.14
2023-01-19T17:54:05.869Z,0.14
2023-01-19T17:56:36.947Z,0.23
2023-01-19T17:59:05.422Z,0.18
2023-01-19T18:01:33.787Z,0.18
2023-01-19T18:04:02.640Z,0.21
2023-01-19T18:06:31.862Z,0.08
2023-01-19T18:08:59.422Z,0.10
2023-01-19T18:11:26.730Z,0.02
2023-01-19T18:13:54.063Z,0.19
2023-01-19T18:16:27.352Z,0.20
2023-01-19T18:18:55.691Z,0.28
2023-01-19T18:21:24.021Z,0.29
2023-01-19T18:23:51.691Z,0.24
2023-01-19T18:26:21.278Z,0.24
2023-01-19T18:28:48.601Z,0.25
2023-01-19T18:31:17.924Z,0.28
2023-01-19T18:33:45.143Z,0.29
2023-01-19T18:36:12.310Z,0.23
2023-01-19T18:38:39.683Z,0.21
2023-01-19T18:41:11.963Z,-0.04
2023-01-19T18:43:39.457Z,0.21
2023-01-19T18:46:07.280Z,0.15
2023-01-19T18:48:34.121Z,0.10
2023-01-19T18:51:06.148Z,0.14
2023-01-19T18:53:33.291Z,0.24
2023-01-19T18:56:02.141Z,0.26
2023-01-19T18:58:30.191Z,0.21
2023-01-19T19:00:56.957Z,0.24
2023-01-19T19:03:23.734Z,0.09
2023-01-19T19:05:50.603Z,0.12
2023-01-19T19:08:17.569Z,0.11
2023-01-19T19:10:44.925Z,0.25
2023-01-19T19:13:14.280Z,0.28
2023-01-19T19:18:35.813Z,0.25
2023-01-19T19:21:10.940Z,0.47
2023-01-19T19:23:38.865Z,0.44
2023-01-19T19:26:08.440Z,0.51
2023-01-19T19:28:40.918Z,0.55
2023-01-19T19:31:15.335Z,0.52
2023-01-19T19:33:44.839Z,0.49
2023-01-19T19:36:12.684Z,0.56
2023-01-19T19:38:47.512Z,0.56
2023-01-19T19:41:17.346Z,0.54
2023-01-19T19:43:47.535Z,0.28
2023-01-19T19:46:20.306Z,-0.04
2023-01-19T19:48:48.908Z,0.10
2023-01-19T19:51:19.273Z,0.34
2023-01-19T19:53:50.166Z,0.10
2023-01-19T19:56:21.527Z,0.24
2023-01-19T19:58:48.992Z,-0.15
2023-01-19T20:01:18.640Z,0.02
2023-01-19T20:03:46.133Z,-0.12
2023-01-19T20:06:22.826Z,-0.18
2023-01-19T20:08:50.847Z,-0.27
2023-01-19T20:11:20.245Z,-0.20
2023-01-19T20:13:47.809Z,-0.54
2023-01-19T20:16:17.429Z,-0.40
2023-01-19T20:18:51.427Z,-0.41
2023-01-19T20:21:27.012Z,-0.49
2023-01-19T20:23:59.604Z,-0.57
2023-01-19T20:26:30.493Z,-0.67
2023-01-19T20:28:59.991Z,-0.64
2023-01-19T20:31:30.808Z,-0.70
2023-01-19T20:34:01.931Z,-1.23
2023-01-19T20:36:35.503Z,-0.71
2023-01-19T20:39:10.380Z,-0.73
2023-01-19T20:41:43.578Z,-0.77
2023-01-19T20:44:12.763Z,-0.84
2023-01-19T20:46:39.977Z,-0.65
2023-01-19T20:49:10.380Z,-0.65
2023-01-19T20:51:40.352Z,-0.91
2023-01-19T20:54:15.064Z,-0.76
2023-01-19T20:56:41.834Z,-0.80
2023-01-19T20:59:10.248Z,-0.57
2023-01-19T21:01:37.743Z,-0.51
2023-01-19T21:04:12.861Z,-0.54
2023-01-19T21:06:40.168Z,-0.84
2023-01-19T21:09:08.652Z,-0.64
2023-01-19T21:11:37.465Z,-0.60
2023-01-19T21:14:05.311Z,-0.61
2023-01-19T21:16:34.028Z,-0.61
2023-01-19T21:19:03.619Z,-0.61
2023-01-19T21:21:31.707Z,-0.57
2023-01-19T21:24:00.956Z,-0.59
2023-01-19T21:26:29.938Z,-0.65
2023-01-19T21:29:01.255Z,-0.62
2023-01-19T21:31:28.971Z,-0.40
2023-01-19T21:33:56.964Z,-0.40
2023-01-19T21:36:24.811Z,-0.44
2023-01-19T21:38:52.520Z,-0.27
2023-01-19T21:41:20.011Z,-0.23
2023-01-19T21:43:47.061Z,-0.24
2023-01-19T21:46:17.084Z,-0.11
2023-01-19T21:48:43.947Z,-0.05
2023-01-19T21:51:10.654Z,-0.06
2023-01-19T21:53:37.818Z,-0.05
2023-01-19T21:56:09.460Z,0.05
2023-01-19T21:58:36.423Z,0.10
2023-01-19T22:01:05.753Z,0.10
2023-01-19T22:03:32.607Z,0.12
2023-01-19T22:06:07.606Z,0.11
2023-01-19T22:08:35.067Z,0.10
2023-01-19T22:11:10.572Z,0.08
2023-01-19T22:13:40.880Z,0.09
2023-01-19T22:16:13.587Z,-0.01
2023-01-19T22:18:42.748Z,0.09
2023-01-19T22:21:12.499Z,-0.08
2023-01-19T22:23:40.161Z,-0.03
2023-01-19T22:26:08.234Z,-0.03
2023-01-19T22:28:35.480Z,-0.05
2023-01-19T22:31:13.015Z,0.12
2023-01-19T22:33:40.772Z,0.14
2023-01-19T22:36:13.388Z,0.28
2023-01-19T22:38:40.822Z,0.10
2023-01-19T22:41:24.016Z,0.08
2023-01-19T22:43:53.040Z,0.12
2023-01-19T22:46:21.417Z,0.04
2023-01-19T22:48:49.396Z,0.01
2023-01-19T22:51:17.703Z,-0.01
2023-01-19T22:53:44.530Z,-0.08
2023-01-19T22:56:17.514Z,-0.09
2023-01-19T22:58:45.165Z,-0.09
2023-01-19T23:01:23.219Z,0.05
2023-01-19T23:03:50.296Z,0.06
2023-01-19T23:06:22.370Z,-0.11
2023-01-19T23:08:49.351Z,-0.10
2023-01-19T23:11:22.256Z,-0.12
2023-01-19T23:13:49.657Z,-0.01
2023-01-19T23:16:17.395Z,0.15
2023-01-19T23:18:44.968Z,0.08
2023-01-19T23:21:16.907Z,0.08
2023-01-19T23:23:44.650Z,-0.14
2023-01-19T23:26:19.201Z,0.06
2023-01-19T23:28:47.449Z,0.05
2023-01-19T23:31:24.218Z,-0.04
2023-01-19T23:33:53.355Z,0.06
2023-01-19T23:36:22.763Z,-0.01
2023-01-19T23:38:51.717Z,0.01
2023-01-19T23:41:19.505Z,-0.06
2023-01-19T23:43:46.812Z,0.06
2023-01-19T23:46:14.843Z,-0.03
2023-01-19T23:48:41.648Z,-0.17
2023-01-19T23:51:09.147Z,-0.03
2023-01-19T23:53:36.317Z,-0.33
2023-01-19T23:56:24.027Z,-0.09
2023-01-19T23:58:56.206Z,-0.10
